createdAt,value
2018-12-04T00:00:00.006Z,8.94
2018-12-04T00:02:27.499Z,8.87
2018-12-04T00:04:55.005Z,9.12
2018-12-04T00:07:22.465Z,9.06
2018-12-04T00:09:49.996Z,9.02
2018-12-04T00:12:17.466Z,8.99
2018-12-04T00:14:44.953Z,9.05
2018-12-04T00:17:12.394Z,9.15
2018-12-04T00:19:40.016Z,9.13
2018-12-04T00:22:07.532Z,9.23
2018-12-04T00:24:35.000Z,9.15
2018-12-04T00:27:02.470Z,9.06
2018-12-04T00:29:29.902Z,9.13
2018-12-04T00:31:57.390Z,9.23
2018-12-04T00:34:24.832Z,9.12
2018-12-04T00:36:52.299Z,9.20
2018-12-04T00:39:19.727Z,9.20
2018-12-04T00:41:47.176Z,9.23
2018-12-04T00:44:14.644Z,9.26
2018-12-04T00:46:42.117Z,9.24
2018-12-04T00:49:09.554Z,9.28
2018-12-04T00:51:37.020Z,9.35
2018-12-04T00:54:04.574Z,9.31
2018-12-04T00:56:32.067Z,9.32
2018-12-04T00:58:59.573Z,9.47
2018-12-04T01:01:27.096Z,9.53
2018-12-04T01:03:54.551Z,9.43
2018-12-04T01:06:22.033Z,9.38
2018-12-04T01:08:49.491Z,9.46
2018-12-04T01:11:16.988Z,9.63
2018-12-04T01:13:44.441Z,9.57
2018-12-04T01:16:12.855Z,9.73
2018-12-04T01:18:40.309Z,9.77
2018-12-04T01:21:07.779Z,9.86
2018-12-04T01:23:35.249Z,9.90
2018-12-04T01:26:02.776Z,10.02
2018-12-04T01:28:30.237Z,10.03
2018-12-04T01:30:57.703Z,10.05
2018-12-04T01:33:25.147Z,9.95
2018-12-04T01:35:52.603Z,9.96
2018-12-04T01:38:20.104Z,9.97
2018-12-04T01:40:47.602Z,10.05
2018-12-04T01:43:15.032Z,10.08
2018-12-04T01:45:42.805Z,10.06
2018-12-04T01:48:10.233Z,9.98
2018-12-04T01:50:37.727Z,9.92
2018-12-04T01:53:05.208Z,9.99
2018-12-04T01:55:32.669Z,10.05
2018-12-04T01:58:00.571Z,10.04
2018-12-04T02:00:28.076Z,10.00
2018-12-04T02:02:55.631Z,10.00
2018-12-04T02:05:24.304Z,10.03
2018-12-04T02:07:51.894Z,10.02
2018-12-04T02:10:19.353Z,10.02
2018-12-04T02:12:46.796Z,10.00
2018-12-04T02:15:14.340Z,10.05
2018-12-04T02:17:41.955Z,10.06
2018-12-04T02:20:10.137Z,10.02
2018-12-04T02:22:37.695Z,9.97
2018-12-04T02:25:05.374Z,10.03
2018-12-04T02:27:32.868Z,10.03
2018-12-04T02:30:00.322Z,10.01
2018-12-04T02:32:27.878Z,10.02
2018-12-04T02:34:55.331Z,10.04
2018-12-04T02:37:22.799Z,10.01
2018-12-04T02:39:50.268Z,10.08
2018-12-04T02:42:19.640Z,10.16
2018-12-04T02:44:47.137Z,10.07
2018-12-04T02:47:14.605Z,10.19
2018-12-04T02:49:42.127Z,10.16
2018-12-04T02:52:09.608Z,10.27
2018-12-04T02:54:37.111Z,10.35
2018-12-04T02:57:04.546Z,10.26
2018-12-04T02:59:32.023Z,10.23
2018-12-04T03:01:59.515Z,10.27
2018-12-04T03:04:26.963Z,10.31
2018-12-04T03:06:54.475Z,10.30
2018-12-04T03:09:21.897Z,10.43
2018-12-04T03:11:49.395Z,10.43
2018-12-04T03:14:16.890Z,10.42
2018-12-04T03:16:44.443Z,10.47
2018-12-04T03:19:11.891Z,10.45
2018-12-04T03:21:39.368Z,10.44
2018-12-04T03:24:06.853Z,10.40
2018-12-04T03:26:34.331Z,10.24
2018-12-04T03:29:01.802Z,9.96
2018-12-04T03:31:29.238Z,9.82
2018-12-04T03:33:56.720Z,9.67
2018-12-04T03:36:24.191Z,9.52
2018-12-04T03:38:51.714Z,9.42
2018-12-04T03:41:19.183Z,9.21
2018-12-04T03:43:46.652Z,9.15
2018-12-04T03:46:14.138Z,9.18
2018-12-04T03:48:41.640Z,9.21
2018-12-04T03:51:09.099Z,9.22
2018-12-04T03:53:36.630Z,9.16
2018-12-04T03:56:04.184Z,9.05
2018-12-04T03:58:31.675Z,9.11
2018-12-04T04:00:59.140Z,9.05
2018-12-04T04:03:26.597Z,9.00
2018-12-04T04:05:54.094Z,8.87
2018-12-04T04:08:21.566Z,8.79
2018-12-04T04:10:49.039Z,8.67
2018-12-04T04:13:16.593Z,8.56
2018-12-04T04:15:44.128Z,8.57
2018-12-04T04:18:11.605Z,8.59
2018-12-04T04:20:39.121Z,8.51
2018-12-04T04:23:06.587Z,8.51
2018-12-04T04:25:37.935Z,8.59
2018-12-04T04:28:05.524Z,8.58
2018-12-04T04:30:33.014Z,8.60
2018-12-04T04:33:00.583Z,8.60
2018-12-04T04:35:28.160Z,8.67
2018-12-04T04:37:55.621Z,8.64
2018-12-04T04:40:23.156Z,8.64
2018-12-04T04:42:50.599Z,8.67
2018-12-04T04:45:18.096Z,8.59
2018-12-04T04:47:45.594Z,8.58
2018-12-04T04:50:13.065Z,8.63
2018-12-04T04:52:40.604Z,8.54
2018-12-04T04:55:08.158Z,8.54
2018-12-04T04:57:35.674Z,8.61
2018-12-04T05:00:03.280Z,8.62
2018-12-04T05:02:30.747Z,8.60
2018-12-04T05:04:58.246Z,8.66
2018-12-04T05:07:25.700Z,8.63
2018-12-04T05:09:53.138Z,8.63
2018-12-04T05:12:20.642Z,8.59
2018-12-04T05:14:48.113Z,8.48
2018-12-04T05:17:15.608Z,8.46
2018-12-04T05:19:43.073Z,8.45
2018-12-04T05:22:10.567Z,8.48
2018-12-04T05:24:38.055Z,8.45
2018-12-04T05:27:05.577Z,8.44
2018-12-04T05:29:33.037Z,8.38
2018-12-04T05:32:00.626Z,8.32
2018-12-04T05:34:28.131Z,8.37
2018-12-04T05:36:55.677Z,8.35
2018-12-04T05:39:23.186Z,8.24
2018-12-04T05:41:50.783Z,8.35
2018-12-04T05:44:18.230Z,8.39
2018-12-04T05:46:45.698Z,8.28
2018-12-04T05:49:13.164Z,8.26
2018-12-04T05:51:40.798Z,8.25
2018-12-04T05:54:12.312Z,8.22
2018-12-04T05:56:39.788Z,8.26
2018-12-04T05:59:07.321Z,8.24
2018-12-04T06:01:34.921Z,8.20
2018-12-04T06:04:02.393Z,8.19
2018-12-04T06:06:29.862Z,8.21
2018-12-04T06:08:57.329Z,8.27
2018-12-04T06:11:24.938Z,8.28
2018-12-04T06:13:52.396Z,8.20
2018-12-04T06:16:19.932Z,8.26
2018-12-04T06:18:47.397Z,8.26
2018-12-04T06:21:14.858Z,8.29
2018-12-04T06:23:42.343Z,8.19
2018-12-04T06:26:09.801Z,8.20
2018-12-04T06:28:37.295Z,8.25
2018-12-04T06:31:04.798Z,8.16
2018-12-04T06:33:32.302Z,8.19
2018-12-04T06:35:59.783Z,8.19
2018-12-04T06:38:27.229Z,8.20
2018-12-04T06:40:54.720Z,8.15
2018-12-04T06:43:22.189Z,8.11
2018-12-04T06:45:49.706Z,8.08
2018-12-04T06:48:17.317Z,8.03
2018-12-04T06:50:44.833Z,7.99
2018-12-04T06:53:12.347Z,8.00
2018-12-04T06:55:39.870Z,7.95
2018-12-04T06:58:07.350Z,8.10
2018-12-04T07:00:34.937Z,8.00
2018-12-04T07:03:02.403Z,8.07
2018-12-04T07:05:29.848Z,8.01
2018-12-04T07:07:57.331Z,8.03
2018-12-04T07:10:24.791Z,7.99
2018-12-04T07:12:52.258Z,7.92
2018-12-04T07:15:19.773Z,7.88
2018-12-04T07:17:47.281Z,7.84
2018-12-04T07:20:14.742Z,7.74
2018-12-04T07:22:42.204Z,7.79
2018-12-04T07:25:09.858Z,7.89
2018-12-04T07:27:37.352Z,7.91
2018-12-04T07:30:06.792Z,7.85
2018-12-04T07:32:38.703Z,7.75
2018-12-04T07:35:04.904Z,7.69
2018-12-04T07:37:32.365Z,7.77
2018-12-04T07:39:59.837Z,7.66
2018-12-04T07:42:27.293Z,7.65
2018-12-04T07:44:55.002Z,7.60
2018-12-04T07:47:22.448Z,7.55
2018-12-04T07:49:49.973Z,7.61
2018-12-04T07:52:17.472Z,7.54
2018-12-04T07:54:44.925Z,7.64
2018-12-04T07:57:12.424Z,7.60
2018-12-04T07:59:40.048Z,7.65
2018-12-04T08:02:07.517Z,7.61
2018-12-04T08:04:34.971Z,7.70
2018-12-04T08:07:02.535Z,7.71
2018-12-04T08:09:29.995Z,7.70
2018-12-04T08:11:57.451Z,7.67
2018-12-04T08:14:24.941Z,7.65
2018-12-04T08:16:52.421Z,7.62
2018-12-04T08:19:19.988Z,7.67
2018-12-04T08:24:21.319Z,7.84
2018-12-04T08:26:48.818Z,7.89
2018-12-04T08:29:16.345Z,7.83
2018-12-04T08:31:43.784Z,7.95
2018-12-04T08:34:11.310Z,7.97
2018-12-04T08:36:38.891Z,7.90
2018-12-04T08:39:06.712Z,7.85
2018-12-04T08:41:34.310Z,7.91
2018-12-04T08:44:01.766Z,7.85
2018-12-04T08:46:29.297Z,7.87
2018-12-04T08:48:56.739Z,7.77
2018-12-04T08:51:24.923Z,7.76
2018-12-04T08:53:52.403Z,7.79
2018-12-04T08:56:19.968Z,7.83
2018-12-04T08:58:47.438Z,7.77
2018-12-04T09:01:14.991Z,7.74
2018-12-04T09:03:42.456Z,7.79
2018-12-04T09:06:11.169Z,7.83
2018-12-04T09:08:38.872Z,7.80
2018-12-04T09:11:06.370Z,7.80
2018-12-04T09:13:33.808Z,7.82
2018-12-04T09:16:01.416Z,7.70
2018-12-04T09:18:28.967Z,7.73
2018-12-04T09:20:56.534Z,7.89
2018-12-04T09:23:24.223Z,7.89
2018-12-04T09:25:51.790Z,8.04
2018-12-04T09:28:19.318Z,8.17
2018-12-04T09:30:46.958Z,8.20
2018-12-04T09:33:14.472Z,8.30
2018-12-04T09:35:42.024Z,8.39
2018-12-04T09:38:09.487Z,8.34
2018-12-04T09:40:37.000Z,8.31
2018-12-04T09:43:04.567Z,8.32
2018-12-04T09:45:32.056Z,8.38
2018-12-04T09:47:59.523Z,8.47
2018-12-04T09:50:27.062Z,8.58
2018-12-04T09:52:54.535Z,8.62
2018-12-04T09:55:21.988Z,8.72
2018-12-04T09:57:49.555Z,8.77
2018-12-04T10:00:17.065Z,8.77
2018-12-04T10:02:44.734Z,8.79
2018-12-04T10:05:12.277Z,8.74
2018-12-04T10:07:39.764Z,8.60
2018-12-04T10:10:07.736Z,8.82
2018-12-04T10:12:35.280Z,8.85
2018-12-04T10:15:02.765Z,8.70
2018-12-04T10:17:30.228Z,8.76
2018-12-04T10:19:57.725Z,8.85
2018-12-04T10:22:25.231Z,8.82
2018-12-04T10:24:52.756Z,8.76
2018-12-04T10:27:20.231Z,8.62
2018-12-04T10:29:47.680Z,8.64
2018-12-04T10:32:15.158Z,8.58
2018-12-04T10:34:42.618Z,8.68
2018-12-04T10:37:10.133Z,8.66
2018-12-04T10:39:37.600Z,8.66
2018-12-04T10:42:05.117Z,8.35
2018-12-04T10:44:32.596Z,8.38
2018-12-04T10:47:00.184Z,8.52
2018-12-04T10:49:27.687Z,8.61
2018-12-04T10:51:55.166Z,8.57
2018-12-04T10:54:22.635Z,8.58
2018-12-04T10:56:50.137Z,8.53
2018-12-04T10:59:17.647Z,8.54
2018-12-04T11:01:50.684Z,8.45
2018-12-04T11:04:18.181Z,8.48
2018-12-04T11:06:45.720Z,8.58
2018-12-04T11:09:13.235Z,8.52
2018-12-04T11:11:40.721Z,8.68
2018-12-04T11:14:08.215Z,8.87
2018-12-04T11:16:35.693Z,8.89
2018-12-04T11:19:03.180Z,8.92
2018-12-04T11:21:30.725Z,8.81
2018-12-04T11:23:58.227Z,8.72
2018-12-04T11:26:25.675Z,8.66
2018-12-04T11:28:53.145Z,8.75
2018-12-04T11:31:20.683Z,8.84
2018-12-04T11:33:48.167Z,8.84
2018-12-04T11:36:15.671Z,8.94
2018-12-04T11:38:43.208Z,9.03
2018-12-04T11:41:10.729Z,9.16
2018-12-04T11:43:38.206Z,9.02
2018-12-04T11:46:05.716Z,9.08
2018-12-04T11:48:33.208Z,9.05
2018-12-04T11:51:00.714Z,9.17
2018-12-04T11:53:28.160Z,8.95
2018-12-04T11:55:55.709Z,8.88
2018-12-04T11:58:23.320Z,8.79
2018-12-04T12:00:50.870Z,8.82
2018-12-04T12:03:18.371Z,8.91
2018-12-04T12:05:45.830Z,8.99
2018-12-04T12:08:13.334Z,9.03
2018-12-04T12:10:40.802Z,9.12
2018-12-04T12:13:08.335Z,9.10
2018-12-04T12:15:35.843Z,9.06
2018-12-04T12:18:03.353Z,9.02
2018-12-04T12:20:30.852Z,8.92
2018-12-04T12:22:58.285Z,8.83
2018-12-04T12:25:25.784Z,8.98
2018-12-04T12:27:53.246Z,8.82
2018-12-04T12:30:20.739Z,8.70
2018-12-04T12:32:48.274Z,8.77
2018-12-04T12:35:15.741Z,8.76
2018-12-04T12:37:43.194Z,8.78
2018-12-04T12:40:10.735Z,8.81
2018-12-04T12:42:38.190Z,8.68
2018-12-04T12:45:07.118Z,8.51
2018-12-04T12:47:34.646Z,8.61
2018-12-04T12:50:02.140Z,8.67
2018-12-04T12:52:29.642Z,8.54
2018-12-04T12:54:57.150Z,8.58
2018-12-04T12:57:24.699Z,8.66
2018-12-04T12:59:52.284Z,8.51
2018-12-04T13:02:19.761Z,8.40
2018-12-04T13:04:47.225Z,8.36
2018-12-04T13:07:14.746Z,8.43
2018-12-04T13:09:42.191Z,8.45
2018-12-04T13:12:09.635Z,8.55
2018-12-04T13:14:37.161Z,8.54
2018-12-04T13:17:04.639Z,8.70
2018-12-04T13:19:32.135Z,8.61
2018-12-04T13:21:59.677Z,8.64
2018-12-04T13:24:27.730Z,8.55
2018-12-04T13:26:55.278Z,8.34
2018-12-04T13:29:22.831Z,8.35
2018-12-04T13:31:50.352Z,8.37
2018-12-04T13:34:17.806Z,7.66
2018-12-04T13:36:45.292Z,7.21
2018-12-04T13:39:12.741Z,7.04
2018-12-04T13:41:40.471Z,7.04
2018-12-04T13:44:08.073Z,7.11
2018-12-04T13:46:35.602Z,7.12
2018-12-04T13:49:03.128Z,7.24
2018-12-04T13:51:30.632Z,7.15
2018-12-04T13:53:58.110Z,7.16
2018-12-04T13:56:25.612Z,7.21
2018-12-04T13:58:53.252Z,7.32
2018-12-04T14:01:20.816Z,7.30
2018-12-04T14:03:48.451Z,7.27
2018-12-04T14:06:16.097Z,7.29
2018-12-04T14:08:43.732Z,7.30
2018-12-04T14:11:11.372Z,7.21
2018-12-04T14:13:38.863Z,7.24
2018-12-04T14:16:06.466Z,7.22
2018-12-04T14:18:33.985Z,7.20
2018-12-04T14:21:01.480Z,7.14
2018-12-04T14:23:28.960Z,7.21
2018-12-04T14:25:56.560Z,7.17
2018-12-04T14:28:24.029Z,7.13
2018-12-04T14:30:51.588Z,7.11
2018-12-04T14:33:19.173Z,6.98
2018-12-04T14:35:46.628Z,6.95
2018-12-04T14:38:14.109Z,7.01
2018-12-04T14:40:41.703Z,6.99
2018-12-04T14:43:09.331Z,6.95
2018-12-04T14:45:36.938Z,6.94
2018-12-04T14:48:04.487Z,6.88
2018-12-04T14:50:32.099Z,6.87
2018-12-04T14:52:59.625Z,6.84
2018-12-04T14:55:27.240Z,6.84
2018-12-04T14:57:54.795Z,6.91
2018-12-04T15:00:22.258Z,6.91
2018-12-04T15:02:49.827Z,6.89
2018-12-04T15:05:17.342Z,6.92
2018-12-04T15:07:44.858Z,6.91
2018-12-04T15:10:12.373Z,6.93
2018-12-04T15:12:39.961Z,6.80
2018-12-04T15:15:07.564Z,6.80
2018-12-04T15:17:35.064Z,6.77
2018-12-04T15:20:02.581Z,6.72
2018-12-04T15:22:30.103Z,6.66
2018-12-04T15:24:57.673Z,6.57
2018-12-04T15:27:25.293Z,6.60
2018-12-04T15:29:52.909Z,6.60
2018-12-04T15:32:20.448Z,6.50
2018-12-04T15:34:48.035Z,6.56
2018-12-04T15:37:15.527Z,6.50
2018-12-04T15:39:43.063Z,6.47
2018-12-04T15:42:10.636Z,6.49
2018-12-04T15:44:38.185Z,6.52
2018-12-04T15:47:05.728Z,6.38
2018-12-04T15:49:33.333Z,6.43
2018-12-04T15:52:00.976Z,6.41
2018-12-04T15:54:28.573Z,6.45
2018-12-04T15:56:56.082Z,6.39
2018-12-04T15:59:23.579Z,6.29
2018-12-04T16:01:51.060Z,6.26
2018-12-04T16:04:18.558Z,6.32
2018-12-04T16:06:46.074Z,6.28
2018-12-04T16:09:13.573Z,6.26
2018-12-04T16:11:41.154Z,6.23
2018-12-04T16:14:08.612Z,6.25
2018-12-04T16:16:36.069Z,6.15
2018-12-04T16:19:03.700Z,6.24
2018-12-04T16:21:31.174Z,6.24
2018-12-04T16:23:58.681Z,6.18
2018-12-04T16:26:26.169Z,6.18
2018-12-04T16:28:53.674Z,6.15
2018-12-04T16:31:21.144Z,6.10
2018-12-04T16:33:48.613Z,6.04
2018-12-04T16:36:16.110Z,6.11
2018-12-04T16:38:43.655Z,6.11
2018-12-04T16:41:11.231Z,6.13
2018-12-04T16:43:39.578Z,6.01
2018-12-04T16:46:07.085Z,6.10
2018-12-04T16:48:34.578Z,5.96
2018-12-04T16:51:02.087Z,5.99
2018-12-04T16:53:29.565Z,5.99
2018-12-04T16:55:57.047Z,5.93
2018-12-04T16:58:25.198Z,5.85
2018-12-04T17:00:52.925Z,5.83
2018-12-04T17:03:20.418Z,5.75
2018-12-04T17:05:47.942Z,5.78
2018-12-04T17:08:15.405Z,5.70
2018-12-04T17:10:42.985Z,5.60
2018-12-04T17:13:10.486Z,5.57
2018-12-04T17:15:37.996Z,5.67
2018-12-04T17:18:05.504Z,5.62
2018-12-04T17:20:33.078Z,5.60
2018-12-04T17:23:00.543Z,5.54
2018-12-04T17:25:28.041Z,5.51
2018-12-04T17:27:55.516Z,5.53
2018-12-04T17:30:22.992Z,5.56
2018-12-04T17:32:50.776Z,5.48
2018-12-04T17:35:18.266Z,5.46
2018-12-04T17:37:45.792Z,5.44
2018-12-04T17:40:13.328Z,5.45
2018-12-04T17:42:40.823Z,5.37
2018-12-04T17:45:08.332Z,5.26
2018-12-04T17:47:35.846Z,5.44
2018-12-04T17:50:03.946Z,5.33
2018-12-04T17:52:31.439Z,5.26
2018-12-04T17:54:58.886Z,5.25
2018-12-04T17:57:26.391Z,5.32
2018-12-04T17:59:53.863Z,5.28
2018-12-04T18:02:21.332Z,5.22
2018-12-04T18:04:48.908Z,5.15
2018-12-04T18:07:16.574Z,5.28
2018-12-04T18:09:44.049Z,5.11
2018-12-04T18:12:11.535Z,5.04
2018-12-04T18:14:39.499Z,5.02
2018-12-04T18:17:07.782Z,5.08
2018-12-04T18:19:35.269Z,5.04
2018-12-04T18:22:02.853Z,4.88
2018-12-04T18:24:30.379Z,5.01
2018-12-04T18:26:57.853Z,4.98
2018-12-04T18:29:25.379Z,4.83
2018-12-04T18:31:52.903Z,4.89
2018-12-04T18:34:20.398Z,4.83
2018-12-04T18:36:47.960Z,4.87
2018-12-04T18:39:15.624Z,4.93
2018-12-04T18:41:43.105Z,4.88
2018-12-04T18:44:10.605Z,4.76
2018-12-04T18:46:38.165Z,4.74
2018-12-04T18:49:05.672Z,4.73
2018-12-04T18:51:33.208Z,4.74
2018-12-04T18:54:00.702Z,4.69
2018-12-04T18:56:28.261Z,4.66
2018-12-04T18:58:55.888Z,4.75
2018-12-04T19:01:23.376Z,4.73
2018-12-04T19:03:50.864Z,4.75
2018-12-04T19:06:18.397Z,4.58
2018-12-04T19:08:48.966Z,4.67
2018-12-04T19:11:16.468Z,4.58
2018-12-04T19:13:43.982Z,4.45
2018-12-04T19:16:11.623Z,4.59
2018-12-04T19:18:39.158Z,4.49
2018-12-04T19:21:06.664Z,4.57
2018-12-04T19:23:34.237Z,4.52
2018-12-04T19:26:01.723Z,4.63
2018-12-04T19:28:29.227Z,4.51
2018-12-04T19:31:02.735Z,4.47
2018-12-04T19:33:27.002Z,4.54
2018-12-04T19:35:54.513Z,4.55
2018-12-04T19:38:22.020Z,4.60
2018-12-04T19:40:49.514Z,4.60
2018-12-04T19:43:17.055Z,4.47
2018-12-04T19:45:44.631Z,4.43
2018-12-04T19:48:12.154Z,4.42
2018-12-04T19:50:39.657Z,4.35
2018-12-04T19:53:07.134Z,4.39
2018-12-04T19:55:34.638Z,4.30
2018-12-04T19:58:02.155Z,4.32
2018-12-04T20:00:29.782Z,4.30
2018-12-04T20:02:57.278Z,4.36
2018-12-04T20:05:24.812Z,4.23
2018-12-04T20:07:53.088Z,4.16
2018-12-04T20:10:20.608Z,4.31
2018-12-04T20:12:48.104Z,4.26
2018-12-04T20:15:15.613Z,4.23
2018-12-04T20:17:43.126Z,4.13
2018-12-04T20:20:10.694Z,4.28
2018-12-04T20:22:38.972Z,4.19
2018-12-04T20:25:06.621Z,4.19
2018-12-04T20:27:34.154Z,4.04
2018-12-04T20:32:36.605Z,4.14
2018-12-04T20:35:05.330Z,4.12
2018-12-04T20:37:33.319Z,4.14
2018-12-04T20:40:00.822Z,4.10
2018-12-04T20:42:28.291Z,4.11
2018-12-04T20:44:55.833Z,4.10
2018-12-04T20:47:23.322Z,4.15
2018-12-04T20:49:50.831Z,4.13
2018-12-04T20:52:18.325Z,4.10
2018-12-04T20:54:45.806Z,4.08
2018-12-04T20:57:13.963Z,4.00
2018-12-04T20:59:41.504Z,4.00
2018-12-04T21:02:09.063Z,4.00
2018-12-04T21:04:36.542Z,4.00
2018-12-04T21:07:04.109Z,3.99
2018-12-04T21:09:31.579Z,4.03
2018-12-04T21:11:59.077Z,3.95
2018-12-04T21:14:26.624Z,3.91
2018-12-04T21:16:54.136Z,3.88
2018-12-04T21:19:21.699Z,3.95
2018-12-04T21:21:49.281Z,3.87
2018-12-04T21:24:16.819Z,3.93
2018-12-04T21:26:44.349Z,3.95
2018-12-04T21:32:26.087Z,3.97
2018-12-04T21:34:59.299Z,3.93
2018-12-04T21:40:14.076Z,3.87
2018-12-04T21:42:47.321Z,3.87
2018-12-04T21:45:20.384Z,3.83
2018-12-04T21:47:55.773Z,3.81
2018-12-04T21:50:23.255Z,3.84
2018-12-04T21:52:50.832Z,3.82
2018-12-04T21:55:18.301Z,3.85
2018-12-04T21:57:45.778Z,3.91
2018-12-04T22:00:13.520Z,3.86
2018-12-04T22:02:41.096Z,3.88
2018-12-04T22:05:08.627Z,3.92
2018-12-04T22:07:36.195Z,3.91
2018-12-04T22:10:05.114Z,3.95
2018-12-04T22:12:32.610Z,3.93
2018-12-04T22:15:00.095Z,3.85
2018-12-04T22:17:27.575Z,3.89
2018-12-04T22:19:55.171Z,3.87
2018-12-04T22:22:22.655Z,3.85
2018-12-04T22:24:50.137Z,3.86
2018-12-04T22:27:17.642Z,3.81
2018-12-04T22:29:45.090Z,3.84
2018-12-04T22:32:12.654Z,3.87
2018-12-04T22:34:40.226Z,3.79
2018-12-04T22:37:07.710Z,3.87
2018-12-04T22:39:35.187Z,3.86
2018-12-04T22:42:02.678Z,3.78
2018-12-04T22:44:30.180Z,3.70
2018-12-04T22:46:57.736Z,3.70
2018-12-04T22:49:25.247Z,3.72
2018-12-04T22:51:52.702Z,3.74
2018-12-04T22:54:20.204Z,3.74
2018-12-04T22:56:47.667Z,3.73
2018-12-04T22:59:15.198Z,3.74
2018-12-04T23:01:42.791Z,3.74
2018-12-04T23:04:10.385Z,3.74
2018-12-04T23:06:38.020Z,3.68
2018-12-04T23:09:07.710Z,3.71
2018-12-04T23:11:35.877Z,3.62
2018-12-04T23:14:03.378Z,3.70
2018-12-04T23:16:31.004Z,3.58
2018-12-04T23:18:59.286Z,3.58
2018-12-04T23:21:26.778Z,3.54
2018-12-04T23:23:54.264Z,3.54
2018-12-04T23:26:21.787Z,3.48
2018-12-04T23:28:49.257Z,3.47
2018-12-04T23:31:16.771Z,3.51
2018-12-04T23:33:44.242Z,3.48
2018-12-04T23:36:11.733Z,3.49
2018-12-04T23:38:39.241Z,3.48
2018-12-04T23:41:06.688Z,3.38
2018-12-04T23:43:34.340Z,3.34
2018-12-04T23:46:01.845Z,3.30
2018-12-04T23:48:29.330Z,3.37
2018-12-04T23:50:57.030Z,3.36
2018-12-04T23:53:24.515Z,3.30
2018-12-04T23:55:51.988Z,3.34
2018-12-04T23:58:19.483Z,3.37
